My Meet Scores
Madison Riebe, United Gymnastics Academy - MyMeetScores.com
Top100 | Top Teams | Upcoming Meets | Completed Meets | Latest | Add Scores | Help| Support | Bookmark and Share

Madison Riebe, United Gymnastics Academy
Personal Bests
LevelVault BarsBeamFloorAA
39.5259.350 9.3259.50037.275
49.3259.575 9.4009.42537.725
59.2509.150 8.4009.35035.825
78.7000.000 0.0009.40018.100
Meet Scores
Date Meet Team Session Level Division Vault Bars Beam Floor AA
2020-02-21 Great Western Invitational - Women's United Gymnastics Academy 02 5 Cowgirl 9.175 8 8.800 9 0.000 17 9.000 9 26.975 17
2020-02-14 Big Classic United Gymnastics Academy 1A 5 Child C 9.250 25T 9.150 28T 0.000 81T 8.725 51T 27.125 76
2020-01-24 Uga Invitational United Gymnastics Academy 1A 7 Jr A 8.700 9T 0.000 19 0.000 18T 9.400 11T 18.100 19
2019-12-20 Aspire Classic - 2019 United Gymnastics Academy 3A 5 Younger 9.200 10T 8.750 15 8.400 19 8.850 15 35.200 18
2019-12-13 2019 St Nick United Gymnastics Academy 7A 5 JrA 9.100 9 9.000 5T 8.375 13 9.350 6T 35.825 8T
2019-03-22 Illinois Gymnastics State Championships Flipstar Gymnastics Academy 6 4 YT A 9.325 3T 9.575 8 9.400 6T 9.425 3 37.725 3
2019-03-01 2019 MEGA Spring Invite Flipstar Gymnastics Academy All 4 All Ages 9.325 1 9.250 11T 8.850 65T 9.350 10T 36.775 14
2019-02-23 Kinetic Classic 2019 Flipstar Gymnastics Academy 1 4 Younger 8.600 23T 9.400 8T 8.875 21T 9.150 10T 36.025 12
2019-02-08 Midwest Twisters Harley Meet Womens Flipstar Gymnastics Academy T09 4 9b 8.675 4 9.500 1 8.650 8 9.150 2 35.975 4
2019-01-25 King Arthur Invitational Flipstar Gymnastics Academy 1 4 Jr C 8.050 15 9.350 1T 8.400 12 9.325 3 35.125 5
2019-01-11 Circle of Stars Gymnastics Flipstar Gymnastics Academy C07 4 Junior B 8.975 6T 9.325 3 9.225 5 9.150 7T 36.675 3
2018-12-07 Horton Invite Flipstar Gymnastics Academy 1 4 Chr B 8.600 9 9.025 9 8.700 11 9.050 8 35.375 11
2018-05-03 Illinois USA Gymnastics Level 3 State Championships Flipstar Gymnastics Academy 3 3 Youth C 9.525 13T 9.350 15 8.950 21 9.175 18 37.000 17T
2018-02-23 Kinetic Classic Flipstar Gymnastics Academy 4 3 Middle 8.800 59T 9.250 33T 8.600 77T 9.475 18T 36.125 52
2018-02-16 Big Classic Flipstar Gymnastics Academy 6B 3 Child B 9.200 4T 9.350 10 9.125 11T 9.300 6T 36.975 7
2018-02-09 IGI Chicago Style Gymnastics Meet Flipstar Gymnastics Academy 42 3 631 LaSalle L3 C 9.400 3 9.050 8 9.325 8 9.500 5 37.275 7
2018-01-26 King Arthur Invitational Flipstar Gymnastics Academy 5 3 JR B 9.250 12T 9.125 6T 9.025 8* 9.200 1 36.600 4T
2017-12-08 Horton Invite At IWU Shirk Center Flipstar Gymnastics Academy All 3 Yth A 9.350 5T 8.900 7T 9.025 6 8.550 11T 35.825 6
2017-11-17 SCGA Classic Flipstar Gymnastics Academy 1 3 JrA 8.800 10 8.475 6 8.575 6 8.900 3 34.750 5
2017-11-10 Illinois NAWGJ Judges Cup 2017 Flipstar Gymnastics Academy S6 3 All Ages 9.125 34T 9.000 4T 8.550 18 8.750 39T 35.425 13T
Get your scores on
a t-shirt, pin, or hoodie

www.lazysuits.com